sensor_id;sensor_type;location;lat;lon;timestamp;P1;durP1;ratioP1;P2;durP2;ratioP2
3781;SDS011;6881;49.962;7.718;2023-07-29T00:01:47;5.00;;;4.40;;
3781;SDS011;6881;49.962;7.718;2023-07-29T00:04:14;5.10;;;4.60;;
3781;SDS011;6881;49.962;7.718;2023-07-29T00:06:39;5.40;;;4.77;;
3781;SDS011;6881;49.962;7.718;2023-07-29T00:09:04;6.63;;;6.00;;
3781;SDS011;6881;49.962;7.718;2023-07-29T00:11:30;4.60;;;4.20;;
3781;SDS011;6881;49.962;7.718;2023-07-29T00:13:57;6.93;;;3.93;;
3781;SDS011;6881;49.962;7.718;2023-07-29T00:16:22;4.40;;;3.97;;
3781;SDS011;6881;49.962;7.718;2023-07-29T00:18:48;4.67;;;3.13;;
3781;SDS011;6881;49.962;7.718;2023-07-29T00:21:14;7.33;;;3.73;;
3781;SDS011;6881;49.962;7.718;2023-07-29T00:23:39;4.77;;;4.37;;
3781;SDS011;6881;49.962;7.718;2023-07-29T00:26:04;5.57;;;3.70;;
3781;SDS011;6881;49.962;7.718;2023-07-29T00:28:30;4.30;;;3.90;;
3781;SDS011;6881;49.962;7.718;2023-07-29T00:30:55;4.43;;;4.03;;
3781;SDS011;6881;49.962;7.718;2023-07-29T00:33:20;4.13;;;3.70;;
3781;SDS011;6881;49.962;7.718;2023-07-29T00:35:46;7.13;;;4.30;;
3781;SDS011;6881;49.962;7.718;2023-07-29T00:38:11;4.03;;;3.57;;
3781;SDS011;6881;49.962;7.718;2023-07-29T00:40:36;4.00;;;3.70;;
3781;SDS011;6881;49.962;7.718;2023-07-29T00:43:02;3.50;;;3.20;;
3781;SDS011;6881;49.962;7.718;2023-07-29T00:45:29;4.37;;;3.97;;
3781;SDS011;6881;49.962;7.718;2023-07-29T00:47:54;4.63;;;3.60;;
3781;SDS011;6881;49.962;7.718;2023-07-29T00:50:20;5.93;;;3.97;;
3781;SDS011;6881;49.962;7.718;2023-07-29T00:52:45;5.33;;;4.10;;
3781;SDS011;6881;49.962;7.718;2023-07-29T00:55:10;4.50;;;4.10;;
3781;SDS011;6881;49.962;7.718;2023-07-29T00:57:36;3.67;;;3.30;;
3781;SDS011;6881;49.962;7.718;2023-07-29T01:00:02;4.43;;;4.10;;
3781;SDS011;6881;49.962;7.718;2023-07-29T01:02:29;4.93;;;4.43;;
3781;SDS011;6881;49.962;7.718;2023-07-29T01:04:55;4.00;;;3.47;;
3781;SDS011;6881;49.962;7.718;2023-07-29T01:17:59;5.53;;;3.77;;
3781;SDS011;6881;49.962;7.718;2023-07-29T01:20:29;3.70;;;3.40;;
3781;SDS011;6881;49.962;7.718;2023-07-29T01:22:58;4.37;;;3.97;;
3781;SDS011;6881;49.962;7.718;2023-07-29T01:25:23;3.40;;;3.10;;
3781;SDS011;6881;49.962;7.718;2023-07-29T01:27:49;4.50;;;3.90;;
3781;SDS011;6881;49.962;7.718;2023-07-29T01:30:22;4.53;;;4.10;;
3781;SDS011;6881;49.962;7.718;2023-07-29T01:32:58;8.03;;;4.40;;
3781;SDS011;6881;49.962;7.718;2023-07-29T01:35:31;5.90;;;4.77;;
3781;SDS011;6881;49.962;7.718;2023-07-29T01:38:02;4.40;;;4.00;;
3781;SDS011;6881;49.962;7.718;2023-07-29T01:40:29;5.93;;;4.57;;
3781;SDS011;6881;49.962;7.718;2023-07-29T01:42:54;4.57;;;4.17;;
3781;SDS011;6881;49.962;7.718;2023-07-29T01:45:24;4.77;;;3.70;;
3781;SDS011;6881;49.962;7.718;2023-07-29T01:47:50;4.97;;;3.83;;
3781;SDS011;6881;49.962;7.718;2023-07-29T01:50:16;4.03;;;3.63;;
3781;SDS011;6881;49.962;7.718;2023-07-29T01:52:41;3.70;;;3.40;;
3781;SDS011;6881;49.962;7.718;2023-07-29T01:55:07;4.47;;;4.07;;
3781;SDS011;6881;49.962;7.718;2023-07-29T01:57:32;4.47;;;4.07;;
3781;SDS011;6881;49.962;7.718;2023-07-29T01:59:57;4.40;;;4.00;;
3781;SDS011;6881;49.962;7.718;2023-07-29T02:02:23;5.00;;;3.63;;
3781;SDS011;6881;49.962;7.718;2023-07-29T02:04:48;8.43;;;4.70;;
3781;SDS011;6881;49.962;7.718;2023-07-29T02:07:16;3.60;;;3.30;;
3781;SDS011;6881;49.962;7.718;2023-07-29T02:09:42;4.60;;;3.90;;
3781;SDS011;6881;49.962;7.718;2023-07-29T02:12:07;4.80;;;4.30;;
3781;SDS011;6881;49.962;7.718;2023-07-29T02:14:33;3.70;;;3.30;;
3781;SDS011;6881;49.962;7.718;2023-07-29T02:16:58;4.63;;;4.20;;
3781;SDS011;6881;49.962;7.718;2023-07-29T02:19:23;5.77;;;4.87;;
3781;SDS011;6881;49.962;7.718;2023-07-29T02:21:48;4.50;;;4.10;;
3781;SDS011;6881;49.962;7.718;2023-07-29T02:24:14;4.03;;;3.67;;
3781;SDS011;6881;49.962;7.718;2023-07-29T02:26:40;4.60;;;3.97;;
3781;SDS011;6881;49.962;7.718;2023-07-29T02:29:06;6.10;;;3.93;;
3781;SDS011;6881;49.962;7.718;2023-07-29T02:31:31;6.20;;;4.23;;
3781;SDS011;6881;49.962;7.718;2023-07-29T02:33:57;5.73;;;4.57;;
3781;SDS011;6881;49.962;7.718;2023-07-29T02:36:22;4.60;;;4.20;;
3781;SDS011;6881;49.962;7.718;2023-07-29T02:38:47;4.77;;;4.30;;
3781;SDS011;6881;49.962;7.718;2023-07-29T02:41:13;7.07;;;4.87;;
3781;SDS011;6881;49.962;7.718;2023-07-29T02:43:39;4.60;;;4.20;;
3781;SDS011;6881;49.962;7.718;2023-07-29T02:46:06;5.20;;;3.90;;
3781;SDS011;6881;49.962;7.718;2023-07-29T02:48:31;5.30;;;4.27;;
3781;SDS011;6881;49.962;7.718;2023-07-29T02:50:57;4.77;;;3.73;;
3781;SDS011;6881;49.962;7.718;2023-07-29T02:53:22;4.90;;;4.20;;
3781;SDS011;6881;49.962;7.718;2023-07-29T02:55:48;4.20;;;3.80;;
3781;SDS011;6881;49.962;7.718;2023-07-29T02:58:13;4.37;;;3.97;;
3781;SDS011;6881;49.962;7.718;2023-07-29T03:00:38;3.90;;;3.37;;
3781;SDS011;6881;49.962;7.718;2023-07-29T03:03:06;4.23;;;2.93;;
3781;SDS011;6881;49.962;7.718;2023-07-29T03:05:32;4.57;;;4.10;;
3781;SDS011;6881;49.962;7.718;2023-07-29T03:07:57;3.60;;;3.30;;
3781;SDS011;6881;49.962;7.718;2023-07-29T03:10:22;4.70;;;3.70;;
3781;SDS011;6881;49.962;7.718;2023-07-29T03:12:48;3.90;;;3.40;;
3781;SDS011;6881;49.962;7.718;2023-07-29T03:15:13;7.50;;;4.13;;
3781;SDS011;6881;49.962;7.718;2023-07-29T03:17:38;4.43;;;3.90;;
3781;SDS011;6881;49.962;7.718;2023-07-29T03:20:04;5.10;;;4.60;;
3781;SDS011;6881;49.962;7.718;2023-07-29T03:22:30;4.90;;;4.30;;
3781;SDS011;6881;49.962;7.718;2023-07-29T03:24:55;6.67;;;4.47;;
3781;SDS011;6881;49.962;7.718;2023-07-29T03:27:20;4.73;;;3.73;;
3781;SDS011;6881;49.962;7.718;2023-07-29T03:29:45;3.90;;;3.60;;
3781;SDS011;6881;49.962;7.718;2023-07-29T03:32:11;4.20;;;3.80;;
3781;SDS011;6881;49.962;7.718;2023-07-29T03:34:36;5.83;;;4.40;;
3781;SDS011;6881;49.962;7.718;2023-07-29T03:37:01;4.27;;;3.90;;
3781;SDS011;6881;49.962;7.718;2023-07-29T03:39:27;5.17;;;3.20;;
3781;SDS011;6881;49.962;7.718;2023-07-29T03:41:52;3.90;;;3.47;;
3781;SDS011;6881;49.962;7.718;2023-07-29T03:44:17;4.43;;;3.67;;
3781;SDS011;6881;49.962;7.718;2023-07-29T03:46:43;4.07;;;3.07;;
3781;SDS011;6881;49.962;7.718;2023-07-29T03:49:11;5.00;;;4.40;;
3781;SDS011;6881;49.962;7.718;2023-07-29T03:51:36;4.20;;;3.80;;
3781;SDS011;6881;49.962;7.718;2023-07-29T03:54:02;4.83;;;3.80;;
3781;SDS011;6881;49.962;7.718;2023-07-29T03:56:27;4.67;;;3.33;;
3781;SDS011;6881;49.962;7.718;2023-07-29T03:58:53;3.90;;;3.50;;
3781;SDS011;6881;49.962;7.718;2023-07-29T04:01:18;4.37;;;3.97;;
3781;SDS011;6881;49.962;7.718;2023-07-29T04:03:47;4.40;;;3.93;;
3781;SDS011;6881;49.962;7.718;2023-07-29T04:06:12;3.40;;;3.10;;
3781;SDS011;6881;49.962;7.718;2023-07-29T04:08:37;5.10;;;3.40;;
3781;SDS011;6881;49.962;7.718;2023-07-29T04:11:03;3.47;;;3.17;;
3781;SDS011;6881;49.962;7.718;2023-07-29T04:13:28;5.73;;;3.20;;
3781;SDS011;6881;49.962;7.718;2023-07-29T04:15:53;3.40;;;3.07;;
3781;SDS011;6881;49.962;7.718;2023-07-29T04:18:19;4.60;;;4.20;;
3781;SDS011;6881;49.962;7.718;2023-07-29T04:20:44;3.50;;;3.20;;
3781;SDS011;6881;49.962;7.718;2023-07-29T04:23:09;6.97;;;3.57;;
3781;SDS011;6881;49.962;7.718;2023-07-29T04:25:34;4.40;;;3.63;;
3781;SDS011;6881;49.962;7.718;2023-07-29T04:28:00;4.73;;;3.17;;
3781;SDS011;6881;49.962;7.718;2023-07-29T04:30:25;3.60;;;3.27;;
3781;SDS011;6881;49.962;7.718;2023-07-29T04:32:51;3.47;;;3.10;;
3781;SDS011;6881;49.962;7.718;2023-07-29T04:35:16;8.83;;;4.10;;
3781;SDS011;6881;49.962;7.718;2023-07-29T04:37:41;5.03;;;3.30;;
3781;SDS011;6881;49.962;7.718;2023-07-29T04:40:07;4.00;;;3.60;;
3781;SDS011;6881;49.962;7.718;2023-07-29T04:42:32;3.27;;;3.03;;
3781;SDS011;6881;49.962;7.718;2023-07-29T04:44:58;4.13;;;3.00;;
3781;SDS011;6881;49.962;7.718;2023-07-29T04:47:23;5.67;;;3.37;;
3781;SDS011;6881;49.962;7.718;2023-07-29T04:49:48;4.27;;;3.33;;
3781;SDS011;6881;49.962;7.718;2023-07-29T04:52:14;5.77;;;4.07;;
3781;SDS011;6881;49.962;7.718;2023-07-29T04:54:40;3.43;;;3.07;;
3781;SDS011;6881;49.962;7.718;2023-07-29T04:57:05;3.90;;;2.90;;
3781;SDS011;6881;49.962;7.718;2023-07-29T04:59:30;6.93;;;3.33;;
3781;SDS011;6881;49.962;7.718;2023-07-29T05:01:56;3.57;;;3.27;;
3781;SDS011;6881;49.962;7.718;2023-07-29T05:04:21;4.00;;;3.40;;
3781;SDS011;6881;49.962;7.718;2023-07-29T05:06:47;3.83;;;2.97;;
3781;SDS011;6881;49.962;7.718;2023-07-29T05:09:13;3.50;;;3.20;;
3781;SDS011;6881;49.962;7.718;2023-07-29T05:11:39;4.10;;;3.77;;
3781;SDS011;6881;49.962;7.718;2023-07-29T05:14:05;3.90;;;3.30;;
3781;SDS011;6881;49.962;7.718;2023-07-29T05:16:31;3.80;;;3.43;;
3781;SDS011;6881;49.962;7.718;2023-07-29T05:18:56;3.83;;;3.47;;
3781;SDS011;6881;49.962;7.718;2023-07-29T05:21:22;3.77;;;2.97;;
3781;SDS011;6881;49.962;7.718;2023-07-29T05:23:47;3.60;;;3.23;;
3781;SDS011;6881;49.962;7.718;2023-07-29T05:26:12;4.40;;;4.00;;
3781;SDS011;6881;49.962;7.718;2023-07-29T05:28:37;5.33;;;4.20;;
3781;SDS011;6881;49.962;7.718;2023-07-29T05:31:03;5.00;;;4.50;;
3781;SDS011;6881;49.962;7.718;2023-07-29T05:33:28;5.63;;;4.27;;
3781;SDS011;6881;49.962;7.718;2023-07-29T05:35:54;5.47;;;4.70;;
3781;SDS011;6881;49.962;7.718;2023-07-29T05:38:19;5.77;;;5.17;;
3781;SDS011;6881;49.962;7.718;2023-07-29T05:40:44;7.73;;;6.33;;
3781;SDS011;6881;49.962;7.718;2023-07-29T05:43:10;6.93;;;6.23;;
3781;SDS011;6881;49.962;7.718;2023-07-29T05:45:35;7.73;;;6.43;;
3781;SDS011;6881;49.962;7.718;2023-07-29T05:48:01;6.30;;;5.70;;
3781;SDS011;6881;49.962;7.718;2023-07-29T05:50:26;8.43;;;5.43;;
3781;SDS011;6881;49.962;7.718;2023-07-29T05:52:51;6.60;;;5.57;;
3781;SDS011;6881;49.962;7.718;2023-07-29T05:55:17;6.30;;;5.00;;
3781;SDS011;6881;49.962;7.718;2023-07-29T05:57:42;6.93;;;6.17;;
3781;SDS011;6881;49.962;7.718;2023-07-29T06:00:07;6.53;;;5.90;;
3781;SDS011;6881;49.962;7.718;2023-07-29T06:02:33;6.73;;;6.13;;
3781;SDS011;6881;49.962;7.718;2023-07-29T06:04:58;5.73;;;5.23;;
3781;SDS011;6881;49.962;7.718;2023-07-29T06:07:23;7.13;;;5.47;;
3781;SDS011;6881;49.962;7.718;2023-07-29T06:09:52;9.80;;;6.50;;
3781;SDS011;6881;49.962;7.718;2023-07-29T06:12:20;5.73;;;5.20;;
3781;SDS011;6881;49.962;7.718;2023-07-29T06:14:45;6.70;;;5.97;;
3781;SDS011;6881;49.962;7.718;2023-07-29T06:17:10;6.33;;;5.73;;
3781;SDS011;6881;49.962;7.718;2023-07-29T06:19:36;7.43;;;5.77;;
3781;SDS011;6881;49.962;7.718;2023-07-29T06:22:01;7.87;;;6.67;;
3781;SDS011;6881;49.962;7.718;2023-07-29T06:24:27;6.47;;;5.87;;
3781;SDS011;6881;49.962;7.718;2023-07-29T06:26:52;7.47;;;6.77;;
3781;SDS011;6881;49.962;7.718;2023-07-29T06:29:17;7.03;;;6.33;;
3781;SDS011;6881;49.962;7.718;2023-07-29T06:31:43;8.93;;;6.30;;
3781;SDS011;6881;49.962;7.718;2023-07-29T06:34:08;7.40;;;6.63;;
3781;SDS011;6881;49.962;7.718;2023-07-29T06:36:33;8.33;;;7.47;;
3781;SDS011;6881;49.962;7.718;2023-07-29T06:38:59;8.17;;;6.03;;
3781;SDS011;6881;49.962;7.718;2023-07-29T06:41:24;7.10;;;6.50;;
3781;SDS011;6881;49.962;7.718;2023-07-29T06:43:49;7.90;;;6.63;;
3781;SDS011;6881;49.962;7.718;2023-07-29T06:46:15;5.50;;;5.00;;
3781;SDS011;6881;49.962;7.718;2023-07-29T06:48:40;7.40;;;6.73;;
3781;SDS011;6881;49.962;7.718;2023-07-29T06:51:05;9.70;;;7.97;;
3781;SDS011;6881;49.962;7.718;2023-07-29T06:53:30;8.40;;;6.60;;
3781;SDS011;6881;49.962;7.718;2023-07-29T06:55:56;6.90;;;6.00;;
3781;SDS011;6881;49.962;7.718;2023-07-29T06:58:21;5.80;;;5.30;;
3781;SDS011;6881;49.962;7.718;2023-07-29T07:00:46;5.70;;;5.20;;
3781;SDS011;6881;49.962;7.718;2023-07-29T07:03:12;5.00;;;4.43;;
3781;SDS011;6881;49.962;7.718;2023-07-29T07:05:37;5.27;;;4.40;;
3781;SDS011;6881;49.962;7.718;2023-07-29T07:08:02;7.13;;;4.80;;
3781;SDS011;6881;49.962;7.718;2023-07-29T07:10:28;4.03;;;3.63;;
3781;SDS011;6881;49.962;7.718;2023-07-29T07:12:53;4.03;;;3.43;;
3781;SDS011;6881;49.962;7.718;2023-07-29T07:15:18;4.60;;;4.20;;
3781;SDS011;6881;49.962;7.718;2023-07-29T07:17:44;4.37;;;3.97;;
3781;SDS011;6881;49.962;7.718;2023-07-29T07:20:09;3.90;;;3.60;;
3781;SDS011;6881;49.962;7.718;2023-07-29T07:22:35;3.27;;;3.00;;
3781;SDS011;6881;49.962;7.718;2023-07-29T07:25:00;3.10;;;2.83;;
3781;SDS011;6881;49.962;7.718;2023-07-29T07:27:26;3.07;;;2.77;;
3781;SDS011;6881;49.962;7.718;2023-07-29T07:29:51;2.90;;;2.60;;
3781;SDS011;6881;49.962;7.718;2023-07-29T07:32:16;3.27;;;2.97;;
3781;SDS011;6881;49.962;7.718;2023-07-29T07:34:41;3.63;;;2.67;;
3781;SDS011;6881;49.962;7.718;2023-07-29T07:37:07;2.37;;;1.87;;
3781;SDS011;6881;49.962;7.718;2023-07-29T07:39:32;3.47;;;1.77;;
3781;SDS011;6881;49.962;7.718;2023-07-29T07:41:57;3.30;;;2.40;;
3781;SDS011;6881;49.962;7.718;2023-07-29T07:44:23;2.87;;;1.97;;
3781;SDS011;6881;49.962;7.718;2023-07-29T07:46:51;2.57;;;2.30;;
3781;SDS011;6881;49.962;7.718;2023-07-29T07:49:16;1.87;;;1.77;;
3781;SDS011;6881;49.962;7.718;2023-07-29T07:51:43;3.83;;;2.00;;
3781;SDS011;6881;49.962;7.718;2023-07-29T08:48:58;3.60;;;2.20;;
3781;SDS011;6881;49.962;7.718;2023-07-29T08:51:24;2.03;;;1.83;;
3781;SDS011;6881;49.962;7.718;2023-07-29T08:53:50;2.00;;;1.80;;
3781;SDS011;6881;49.962;7.718;2023-07-29T08:56:16;2.30;;;2.10;;
3781;SDS011;6881;49.962;7.718;2023-07-29T08:58:41;2.63;;;2.27;;
3781;SDS011;6881;49.962;7.718;2023-07-29T09:01:07;2.03;;;1.70;;
3781;SDS011;6881;49.962;7.718;2023-07-29T09:03:32;2.40;;;2.00;;
3781;SDS011;6881;49.962;7.718;2023-07-29T09:05:58;2.70;;;2.03;;
3781;SDS011;6881;49.962;7.718;2023-07-29T09:08:24;2.20;;;1.93;;
3781;SDS011;6881;49.962;7.718;2023-07-29T09:10:51;3.27;;;1.90;;
3781;SDS011;6881;49.962;7.718;2023-07-29T09:13:16;1.97;;;1.70;;
3781;SDS011;6881;49.962;7.718;2023-07-29T09:15:41;2.77;;;1.97;;
3781;SDS011;6881;49.962;7.718;2023-07-29T09:18:08;1.70;;;1.60;;
3781;SDS011;6881;49.962;7.718;2023-07-29T09:20:34;1.80;;;1.70;;
3781;SDS011;6881;49.962;7.718;2023-07-29T09:23:00;4.60;;;1.90;;
3781;SDS011;6881;49.962;7.718;2023-07-29T09:25:26;2.07;;;1.60;;
3781;SDS011;6881;49.962;7.718;2023-07-29T09:27:52;3.00;;;2.70;;
3781;SDS011;6881;49.962;7.718;2023-07-29T09:30:17;2.33;;;1.97;;
3781;SDS011;6881;49.962;7.718;2023-07-29T09:32:43;2.40;;;2.10;;
3781;SDS011;6881;49.962;7.718;2023-07-29T09:35:11;1.87;;;1.47;;
3781;SDS011;6881;49.962;7.718;2023-07-29T09:37:37;1.73;;;1.47;;
3781;SDS011;6881;49.962;7.718;2023-07-29T09:40:03;2.23;;;1.97;;
3781;SDS011;6881;49.962;7.718;2023-07-29T09:42:29;2.10;;;1.50;;
3781;SDS011;6881;49.962;7.718;2023-07-29T09:44:54;1.70;;;1.40;;
3781;SDS011;6881;49.962;7.718;2023-07-29T09:47:20;2.63;;;1.60;;
3781;SDS011;6881;49.962;7.718;2023-07-29T09:49:46;2.20;;;1.97;;
3781;SDS011;6881;49.962;7.718;2023-07-29T09:52:13;2.23;;;1.97;;
3781;SDS011;6881;49.962;7.718;2023-07-29T09:54:39;1.80;;;1.50;;
3781;SDS011;6881;49.962;7.718;2023-07-29T09:57:06;2.63;;;1.80;;
3781;SDS011;6881;49.962;7.718;2023-07-29T09:59:35;2.13;;;1.70;;
3781;SDS011;6881;49.962;7.718;2023-07-29T10:02:00;4.20;;;1.80;;
3781;SDS011;6881;49.962;7.718;2023-07-29T10:04:25;2.17;;;1.97;;
3781;SDS011;6881;49.962;7.718;2023-07-29T10:06:52;2.60;;;1.80;;
3781;SDS011;6881;49.962;7.718;2023-07-29T10:09:17;2.30;;;1.50;;
3781;SDS011;6881;49.962;7.718;2023-07-29T10:11:44;2.30;;;1.83;;
3781;SDS011;6881;49.962;7.718;2023-07-29T10:14:09;2.10;;;1.87;;
3781;SDS011;6881;49.962;7.718;2023-07-29T10:16:36;1.90;;;1.43;;
3781;SDS011;6881;49.962;7.718;2023-07-29T10:19:02;2.57;;;2.17;;
3781;SDS011;6881;49.962;7.718;2023-07-29T10:21:29;1.73;;;1.60;;
3781;SDS011;6881;49.962;7.718;2023-07-29T10:23:54;4.33;;;1.80;;
3781;SDS011;6881;49.962;7.718;2023-07-29T10:26:21;2.40;;;1.90;;
3781;SDS011;6881;49.962;7.718;2023-07-29T10:28:47;2.30;;;1.80;;
3781;SDS011;6881;49.962;7.718;2023-07-29T10:31:13;2.40;;;1.67;;
3781;SDS011;6881;49.962;7.718;2023-07-29T10:33:40;3.67;;;2.47;;
3781;SDS011;6881;49.962;7.718;2023-07-29T10:36:06;4.23;;;2.67;;
3781;SDS011;6881;49.962;7.718;2023-07-29T10:38:31;2.53;;;2.03;;
3781;SDS011;6881;49.962;7.718;2023-07-29T10:40:57;2.93;;;2.07;;
3781;SDS011;6881;49.962;7.718;2023-07-29T10:43:26;3.07;;;2.10;;
3781;SDS011;6881;49.962;7.718;2023-07-29T10:45:52;3.03;;;2.30;;
3781;SDS011;6881;49.962;7.718;2023-07-29T10:48:39;2.37;;;1.73;;
3781;SDS011;6881;49.962;7.718;2023-07-29T10:53:59;1.83;;;1.70;;
3781;SDS011;6881;49.962;7.718;2023-07-29T10:56:46;2.83;;;1.77;;
3781;SDS011;6881;49.962;7.718;2023-07-29T11:01:42;2.27;;;1.87;;
3781;SDS011;6881;49.962;7.718;2023-07-29T11:15:13;2.07;;;1.87;;
3781;SDS011;6881;49.962;7.718;2023-07-29T11:17:39;2.30;;;2.07;;
3781;SDS011;6881;49.962;7.718;2023-07-29T11:20:05;2.90;;;2.20;;
3781;SDS011;6881;49.962;7.718;2023-07-29T11:22:32;2.50;;;2.30;;
3781;SDS011;6881;49.962;7.718;2023-07-29T11:24:57;2.47;;;2.27;;
3781;SDS011;6881;49.962;7.718;2023-07-29T11:27:23;3.57;;;2.50;;
3781;SDS011;6881;49.962;7.718;2023-07-29T11:29:48;3.07;;;1.97;;
3781;SDS011;6881;49.962;7.718;2023-07-29T11:32:14;2.47;;;2.27;;
3781;SDS011;6881;49.962;7.718;2023-07-29T11:34:40;2.67;;;2.37;;
3781;SDS011;6881;49.962;7.718;2023-07-29T11:37:06;3.37;;;2.33;;
3781;SDS011;6881;49.962;7.718;2023-07-29T11:39:38;2.40;;;2.07;;
3781;SDS011;6881;49.962;7.718;2023-07-29T11:42:05;2.83;;;2.20;;
3781;SDS011;6881;49.962;7.718;2023-07-29T11:44:30;2.10;;;1.90;;
3781;SDS011;6881;49.962;7.718;2023-07-29T11:46:56;2.23;;;1.90;;
3781;SDS011;6881;49.962;7.718;2023-07-29T11:49:21;2.90;;;1.90;;
3781;SDS011;6881;49.962;7.718;2023-07-29T11:51:46;2.37;;;1.50;;
3781;SDS011;6881;49.962;7.718;2023-07-29T11:54:11;2.17;;;1.70;;
3781;SDS011;6881;49.962;7.718;2023-07-29T11:56:37;1.70;;;1.60;;
3781;SDS011;6881;49.962;7.718;2023-07-29T11:59:02;4.53;;;2.00;;
3781;SDS011;6881;49.962;7.718;2023-07-29T12:01:28;2.20;;;1.93;;
3781;SDS011;6881;49.962;7.718;2023-07-29T12:03:54;2.00;;;1.80;;
3781;SDS011;6881;49.962;7.718;2023-07-29T12:06:20;2.33;;;2.10;;
3781;SDS011;6881;49.962;7.718;2023-07-29T12:08:46;3.10;;;1.80;;
3781;SDS011;6881;49.962;7.718;2023-07-29T12:11:12;2.60;;;2.10;;
3781;SDS011;6881;49.962;7.718;2023-07-29T12:13:37;1.97;;;1.77;;
3781;SDS011;6881;49.962;7.718;2023-07-29T12:16:03;2.07;;;1.57;;
3781;SDS011;6881;49.962;7.718;2023-07-29T12:18:29;2.13;;;1.80;;
3781;SDS011;6881;49.962;7.718;2023-07-29T12:20:56;2.20;;;1.73;;
3781;SDS011;6881;49.962;7.718;2023-07-29T12:23:23;2.27;;;1.90;;
3781;SDS011;6881;49.962;7.718;2023-07-29T12:25:50;2.10;;;1.70;;
3781;SDS011;6881;49.962;7.718;2023-07-29T12:28:15;2.60;;;2.30;;
3781;SDS011;6881;49.962;7.718;2023-07-29T12:30:41;4.10;;;2.07;;
3781;SDS011;6881;49.962;7.718;2023-07-29T12:33:07;2.23;;;1.77;;
3781;SDS011;6881;49.962;7.718;2023-07-29T12:35:36;2.33;;;1.90;;
3781;SDS011;6881;49.962;7.718;2023-07-29T12:38:02;2.00;;;1.60;;
3781;SDS011;6881;49.962;7.718;2023-07-29T12:40:27;3.33;;;2.30;;
3781;SDS011;6881;49.962;7.718;2023-07-29T12:42:52;3.30;;;2.70;;
3781;SDS011;6881;49.962;7.718;2023-07-29T12:45:18;2.50;;;2.20;;
3781;SDS011;6881;49.962;7.718;2023-07-29T12:47:44;2.70;;;1.70;;
3781;SDS011;6881;49.962;7.718;2023-07-29T12:50:09;2.97;;;2.40;;
3781;SDS011;6881;49.962;7.718;2023-07-29T12:52:35;2.83;;;2.50;;
3781;SDS011;6881;49.962;7.718;2023-07-29T12:55:00;2.90;;;2.20;;
3781;SDS011;6881;49.962;7.718;2023-07-29T12:57:25;2.60;;;2.40;;
3781;SDS011;6881;49.962;7.718;2023-07-29T12:59:50;3.67;;;2.87;;
3781;SDS011;6881;49.962;7.718;2023-07-29T13:02:16;3.00;;;2.70;;
3781;SDS011;6881;49.962;7.718;2023-07-29T13:04:41;1.93;;;1.77;;
3781;SDS011;6881;49.962;7.718;2023-07-29T13:07:06;2.67;;;2.07;;
3781;SDS011;6881;49.962;7.718;2023-07-29T13:09:32;2.57;;;2.33;;
3781;SDS011;6881;49.962;7.718;2023-07-29T13:11:57;2.60;;;2.20;;
3781;SDS011;6881;49.962;7.718;2023-07-29T13:14:22;3.47;;;1.90;;
3781;SDS011;6881;49.962;7.718;2023-07-29T13:16:48;2.27;;;1.80;;
3781;SDS011;6881;49.962;7.718;2023-07-29T13:19:13;4.17;;;2.10;;
3781;SDS011;6881;49.962;7.718;2023-07-29T13:21:38;2.37;;;2.17;;
3781;SDS011;6881;49.962;7.718;2023-07-29T13:24:04;2.40;;;2.10;;
3781;SDS011;6881;49.962;7.718;2023-07-29T13:26:29;5.07;;;2.50;;
3781;SDS011;6881;49.962;7.718;2023-07-29T13:28:54;2.63;;;2.27;;
3781;SDS011;6881;49.962;7.718;2023-07-29T13:31:20;2.33;;;2.00;;
3781;SDS011;6881;49.962;7.718;2023-07-29T13:33:46;2.70;;;2.47;;
3781;SDS011;6881;49.962;7.718;2023-07-29T13:36:11;2.40;;;2.00;;
3781;SDS011;6881;49.962;7.718;2023-07-29T13:38:36;2.23;;;2.03;;
3781;SDS011;6881;49.962;7.718;2023-07-29T13:41:02;3.60;;;1.67;;
3781;SDS011;6881;49.962;7.718;2023-07-29T13:43:27;4.63;;;2.07;;
3781;SDS011;6881;49.962;7.718;2023-07-29T13:45:53;2.67;;;2.20;;
3781;SDS011;6881;49.962;7.718;2023-07-29T13:48:18;2.30;;;2.07;;
3781;SDS011;6881;49.962;7.718;2023-07-29T13:50:44;3.73;;;2.00;;
3781;SDS011;6881;49.962;7.718;2023-07-29T13:53:10;2.80;;;2.00;;
3781;SDS011;6881;49.962;7.718;2023-07-29T13:55:35;2.00;;;1.77;;
3781;SDS011;6881;49.962;7.718;2023-07-29T13:58:01;2.13;;;1.83;;
3781;SDS011;6881;49.962;7.718;2023-07-29T14:00:26;2.00;;;1.80;;
3781;SDS011;6881;49.962;7.718;2023-07-29T14:02:51;2.33;;;2.13;;
3781;SDS011;6881;49.962;7.718;2023-07-29T14:05:17;2.00;;;1.80;;
3781;SDS011;6881;49.962;7.718;2023-07-29T14:07:42;3.20;;;1.97;;
3781;SDS011;6881;49.962;7.718;2023-07-29T14:10:07;2.20;;;2.00;;
3781;SDS011;6881;49.962;7.718;2023-07-29T14:12:33;1.93;;;1.70;;
3781;SDS011;6881;49.962;7.718;2023-07-29T14:14:58;2.30;;;1.70;;
3781;SDS011;6881;49.962;7.718;2023-07-29T14:17:24;5.30;;;1.90;;
3781;SDS011;6881;49.962;7.718;2023-07-29T14:19:49;2.30;;;2.07;;
3781;SDS011;6881;49.962;7.718;2023-07-29T14:22:14;2.10;;;1.80;;
3781;SDS011;6881;49.962;7.718;2023-07-29T14:24:40;3.43;;;1.93;;
3781;SDS011;6881;49.962;7.718;2023-07-29T14:27:05;3.77;;;2.30;;
3781;SDS011;6881;49.962;7.718;2023-07-29T14:29:30;2.40;;;2.00;;
3781;SDS011;6881;49.962;7.718;2023-07-29T14:31:56;3.17;;;1.93;;
3781;SDS011;6881;49.962;7.718;2023-07-29T14:34:22;2.60;;;1.90;;
3781;SDS011;6881;49.962;7.718;2023-07-29T14:36:47;2.60;;;1.90;;
3781;SDS011;6881;49.962;7.718;2023-07-29T14:39:12;4.20;;;2.00;;
3781;SDS011;6881;49.962;7.718;2023-07-29T14:41:38;3.43;;;2.13;;
3781;SDS011;6881;49.962;7.718;2023-07-29T14:44:03;2.73;;;2.10;;
3781;SDS011;6881;49.962;7.718;2023-07-29T14:46:28;2.10;;;1.73;;
3781;SDS011;6881;49.962;7.718;2023-07-29T14:48:54;2.23;;;2.00;;
3781;SDS011;6881;49.962;7.718;2023-07-29T14:51:19;5.03;;;2.00;;
3781;SDS011;6881;49.962;7.718;2023-07-29T14:53:44;3.30;;;1.97;;
3781;SDS011;6881;49.962;7.718;2023-07-29T14:56:10;2.00;;;1.80;;
3781;SDS011;6881;49.962;7.718;2023-07-29T14:58:35;2.80;;;2.30;;
3781;SDS011;6881;49.962;7.718;2023-07-29T15:01:00;2.20;;;2.00;;
3781;SDS011;6881;49.962;7.718;2023-07-29T15:03:26;2.47;;;2.10;;
3781;SDS011;6881;49.962;7.718;2023-07-29T15:05:51;2.43;;;2.23;;
3781;SDS011;6881;49.962;7.718;2023-07-29T15:08:16;3.40;;;2.37;;
3781;SDS011;6881;49.962;7.718;2023-07-29T15:10:46;2.37;;;1.97;;
3781;SDS011;6881;49.962;7.718;2023-07-29T15:13:12;2.67;;;2.23;;
3781;SDS011;6881;49.962;7.718;2023-07-29T15:15:40;2.80;;;2.37;;
3781;SDS011;6881;49.962;7.718;2023-07-29T15:18:05;2.10;;;1.83;;
3781;SDS011;6881;49.962;7.718;2023-07-29T15:20:31;2.73;;;1.77;;
3781;SDS011;6881;49.962;7.718;2023-07-29T15:22:56;2.43;;;2.07;;
3781;SDS011;6881;49.962;7.718;2023-07-29T15:25:21;2.33;;;1.87;;
3781;SDS011;6881;49.962;7.718;2023-07-29T15:27:47;2.10;;;1.83;;
3781;SDS011;6881;49.962;7.718;2023-07-29T15:30:12;3.20;;;2.13;;
3781;SDS011;6881;49.962;7.718;2023-07-29T15:32:37;2.80;;;2.07;;
3781;SDS011;6881;49.962;7.718;2023-07-29T15:35:03;2.70;;;1.90;;
3781;SDS011;6881;49.962;7.718;2023-07-29T15:37:28;2.70;;;2.50;;
3781;SDS011;6881;49.962;7.718;2023-07-29T15:39:54;2.30;;;2.00;;
3781;SDS011;6881;49.962;7.718;2023-07-29T15:42:19;1.90;;;1.70;;
3781;SDS011;6881;49.962;7.718;2023-07-29T15:44:44;2.30;;;1.90;;
3781;SDS011;6881;49.962;7.718;2023-07-29T15:47:10;2.30;;;2.10;;
3781;SDS011;6881;49.962;7.718;2023-07-29T15:49:37;2.10;;;1.60;;
3781;SDS011;6881;49.962;7.718;2023-07-29T15:52:03;2.30;;;1.70;;
3781;SDS011;6881;49.962;7.718;2023-07-29T15:54:28;1.50;;;1.30;;
3781;SDS011;6881;49.962;7.718;2023-07-29T15:56:54;4.33;;;1.97;;
3781;SDS011;6881;49.962;7.718;2023-07-29T15:59:19;1.90;;;1.63;;
3781;SDS011;6881;49.962;7.718;2023-07-29T16:01:44;2.40;;;1.70;;
3781;SDS011;6881;49.962;7.718;2023-07-29T16:04:09;2.23;;;1.80;;
3781;SDS011;6881;49.962;7.718;2023-07-29T16:06:35;2.17;;;1.97;;
3781;SDS011;6881;49.962;7.718;2023-07-29T16:09:00;2.90;;;1.70;;
3781;SDS011;6881;49.962;7.718;2023-07-29T16:11:31;2.47;;;1.57;;
3781;SDS011;6881;49.962;7.718;2023-07-29T16:13:56;2.73;;;1.90;;
3781;SDS011;6881;49.962;7.718;2023-07-29T16:16:21;2.40;;;1.90;;
3781;SDS011;6881;49.962;7.718;2023-07-29T16:18:47;2.23;;;1.80;;
3781;SDS011;6881;49.962;7.718;2023-07-29T16:21:13;3.13;;;1.63;;
3781;SDS011;6881;49.962;7.718;2023-07-29T16:23:38;1.63;;;1.37;;
3781;SDS011;6881;49.962;7.718;2023-07-29T16:26:03;2.50;;;1.70;;
3781;SDS011;6881;49.962;7.718;2023-07-29T16:28:29;3.40;;;2.47;;